Latest Weather Observations for Tewantin

IDQ60901

Issued at 7:25 am EST Saturday 1 November 2014 (issued every 10 minutes, with the page automatically refreshed every 10 minutes)

About weather observations | Map of Brisbane area stations | Latest observations for Brisbane area | Other Formats
Station Details ID: 040908 Name: TEWANTIN RSL PARK Lat: -26.39 Lon: 153.04 Height: 6.4 m
Data from the previous 72 hours. | See also: Recent months at Tewantin
Date/Time
EST
Tmp

°C
App
Tmp
°C
Dew
Point
°C
Rel
Hum
%
Delta-T

°C
Wind Press
QNH
hPa
Press
MSL
hPa
Rain
since
9 am
mm
Dir
 
Spd
km/h
Gust
km/h
Spd
kts
Gust
kts
01/07:00am 22.4 24.1 20.1 87 1.5 NNW 11 19 6 10 1015.8 1015.8 0.0
01/06:30am 21.2 23.8 20.4 95 0.5 NW 7 11 4 6 1016.1 1016.1 0.0
01/06:00am 21.2 24.5 20.7 97 0.3 NW 4 7 2 4 1015.7 1015.7 0.0
01/05:30am 20.7 23.3 20.5 99 0.1 NNW 7 11 4 6 1015.3 1015.3 0.0
01/05:00am 19.8 22.0 19.6 99 0.1 NNW 7 11 4 6 1015.2 1015.2 0.0
01/04:30am 19.6 21.9 19.4 99 0.1 N 6 9 3 5 1015.1 1015.1 0.0
01/04:00am 19.9 22.1 19.6 98 0.2 WNW 7 11 4 6 1014.8 1014.8 0.0
01/03:30am 20.1 22.4 19.9 99 0.1 NNW 7 13 4 7 1014.4 1014.4 0.0
01/03:00am 20.1 22.6 19.8 98 0.2 NNW 6 9 3 5 1014.5 1014.5 0.0
01/02:30am 20.3 22.6 19.8 97 0.3 NW 7 11 4 6 1014.6 1014.6 0.0
01/02:00am 20.5 22.9 20.0 97 0.3 NW 7 9 4 5 1014.7 1014.7 0.0
01/01:30am 20.7 23.2 20.2 97 0.3 NNW 7 11 4 6 1014.9 1014.9 0.0
01/01:00am 20.7 23.2 19.9 95 0.5 NW 6 11 3 6 1015.2 1015.2 0.0
01/12:30am 21.4 24.3 20.6 95 0.5 N 6 9 3 5 1015.2 1015.2 0.0
01/12:00am 21.7 24.2 20.3 92 0.9 NNW 7 11 4 6 1015.4 1015.4 0.0
 
Date/Time
EST
Tmp

°C
App
Tmp
°C
Dew
Point
°C
Rel
Hum
%
Delta-T

°C
Wind Press
QNH
hPa
Press
MSL
hPa
Rain
since
9 am
mm
Dir
 
Spd
km/h
Gust
km/h
Spd
kts
Gust
kts
31/11:30pm 21.9 24.5 20.4 91 1.0 NNW 7 9 4 5 1015.8 1015.8 0.0
31/11:00pm 22.4 24.4 20.7 90 1.1 N 11 15 6 8 1016.2 1016.2 0.0
31/10:30pm 22.1 25.0 20.6 91 1.0 N 6 7 3 4 1016.4 1016.4 0.0
31/10:00pm 22.5 24.5 20.0 86 1.6 N 9 13 5 7 1016.4 1016.4 0.0
31/09:30pm 22.7 24.3 19.9 84 1.8 N 11 15 6 8 1016.3 1016.3 0.0
31/09:00pm 22.8 24.2 19.6 82 2.0 N 11 15 6 8 1016.1 1016.1 0.0
31/08:30pm 22.9 24.4 19.7 82 2.1 N 11 17 6 9 1015.8 1015.8 0.0
31/08:00pm 23.1 24.6 19.7 81 2.2 N 11 15 6 8 1015.9 1015.9 0.0
31/07:30pm 23.2 24.2 20.3 84 1.9 N 15 24 8 13 1015.6 1015.6 0.0
31/07:00pm 23.5 24.7 20.6 84 1.9 N 15 22 8 12 1015.1 1015.1 0.0
31/06:30pm 23.5 23.7 20.2 82 2.1 N 19 26 10 14 1014.5 1014.5 0.0
31/06:00pm 23.9 25.4 21.2 85 1.8 N 15 24 8 13 1014.5 1014.5 0.0
31/05:30pm 24.0 24.3 20.3 80 2.4 NNE 19 24 10 13 1014.1 1014.1 0.0
31/05:00pm 24.4 24.8 20.9 81 2.3 NNE 20 32 11 17 1014.2 1014.2 0.0
31/04:30pm 24.7 24.1 20.6 78 2.7 NNE 24 35 13 19 1014.0 1014.0 0.0
31/04:00pm 24.6 23.9 20.3 77 2.8 NNE 24 37 13 20 1013.9 1013.9 0.0
31/03:30pm 25.1 24.3 20.1 74 3.2 NNE 24 39 13 21 1013.9 1013.9 0.0
31/03:00pm 25.4 24.8 20.6 75 3.1 NE 24 33 13 18 1014.0 1014.0 0.0
31/02:30pm 25.3 24.4 19.9 72 3.5 NNE 24 35 13 19 1014.2 1014.2 0.0
31/02:00pm 25.8 25.7 19.9 70 3.8 NE 20 32 11 17 1014.3 1014.3 0.0
31/01:30pm 25.7 25.4 19.6 69 3.9 NNE 20 32 11 17 1014.6 1014.6 0.0
31/01:00pm 26.3 25.6 19.4 66 4.4 NNE 22 33 12 18 1014.9 1014.9 0.0
31/12:30pm 26.1 25.3 19.2 65 4.4 NNE 22 35 12 19 1015.3 1015.3 0.0
31/12:00pm 26.7 26.8 20.3 68 4.2 NNE 20 28 11 15 1015.6 1015.6 0.0
31/11:30am 26.9 26.8 19.5 64 4.8 NE 19 28 10 15 1016.0 1016.0 0.0
31/11:00am 26.3 26.4 19.2 65 4.6 NNE 17 26 9 14 1016.2 1016.2 0.0
31/10:30am 26.5 27.3 19.9 67 4.3 NE 15 22 8 12 1016.5 1016.5 0.0
31/10:00am 26.7 28.9 21.2 72 3.6 NE 11 17 6 9 1016.8 1016.8 0.0
31/09:30am 25.6 27.7 19.3 68 4.0 N 7 13 4 7 1017.1 1017.1 0.0
31/09:00am 25.7 27.0 18.4 64 4.6 NNE 9 13 5 7 1017.2 1017.2 0.0
31/08:30am 24.8 26.6 18.7 69 3.9 NE 7 17 4 9 1017.3 1017.3 0.0
31/08:00am 24.4 27.4 20.1 77 2.8 NW 4 6 2 3 1017.3 1017.3 0.0
31/07:30am 23.4 26.0 20.1 82 2.1 N 6 7 3 4 1017.3 1017.3 0.0
31/07:00am 22.7 25.8 21.0 90 1.1 N 6 9 3 5 1017.1 1017.1 0.0
31/06:30am 22.2 25.1 20.7 91 1.0 N 6 7 3 4 1016.8 1016.8 0.0
31/06:00am 22.1 25.0 20.7 92 0.9 NW 6 9 3 5 1016.6 1016.6 0.0
31/05:30am 21.2 24.4 20.4 95 0.5 NW 4 7 2 4 1016.2 1016.2 0.0
31/05:00am 21.1 25.0 20.3 95 0.5 CALM 0 0 0 0 1015.9 1015.9 0.0
31/04:30am 21.4 25.3 20.4 94 0.6 CALM 0 4 0 2 1015.4 1015.4 0.0
31/04:00am 21.6 25.6 20.6 94 0.6 CALM 0 0 0 0 1015.2 1015.2 0.0
31/03:30am 22.0 26.0 20.5 91 1.0 CALM 0 0 0 0 1014.9 1014.9 0.0
31/03:00am 22.2 26.1 20.3 89 1.2 CALM 0 0 0 0 1014.9 1014.9 0.0
31/02:30am 22.3 26.1 20.2 88 1.4 CALM 0 0 0 0 1015.1 1015.1 0.0
31/02:00am 22.4 25.9 20.3 88 1.4 NW 2 6 1 3 1015.1 1015.1 0.0
31/01:30am 22.4 26.3 20.3 88 1.4 CALM 0 0 0 0 1015.1 1015.1 0.0
31/01:00am 22.5 26.3 20.2 87 1.5 CALM 0 0 0 0 1015.3 1015.3 0.0
31/12:30am 22.5 26.4 20.4 88 1.4 CALM 0 6 0 3 1015.5 1015.5 0.0
31/12:00am 22.3 26.0 20.0 87 1.5 CALM 0 0 0 0 1015.5 1015.5 0.0
 
Date/Time
EST
Tmp

°C
App
Tmp
°C
Dew
Point
°C
Rel
Hum
%
Delta-T

°C
Wind Press
QNH
hPa
Press
MSL
hPa
Rain
since
9 am
mm
Dir
 
Spd
km/h
Gust
km/h
Spd
kts
Gust
kts
30/11:30pm 22.4 26.2 20.1 87 1.5 CALM 0 0 0 0 1015.8 1015.8 0.0
30/11:00pm 22.5 25.4 20.6 89 1.2 N 6 9 3 5 1016.2 1016.2 0.0
30/10:30pm 22.6 25.4 20.5 88 1.4 NW 6 7 3 4 1016.4 1016.4 0.0
30/10:00pm 22.6 25.7 21.1 91 1.0 NNE 6 7 3 4 1016.4 1016.4 0.0
30/09:30pm 22.5 25.4 20.6 89 1.2 N 6 7 3 4 1016.4 1016.4 0.0
30/09:00pm 22.5 25.5 20.8 90 1.1 N 6 9 3 5 1016.2 1016.2 0.0
30/08:30pm 22.5 25.5 20.8 90 1.1 NE 6 9 3 5 1016.1 1016.1 0.0
30/08:00pm 22.6 25.5 20.7 89 1.2 NNE 6 7 3 4 1015.9 1015.9 0.0
30/07:30pm 22.8 25.3 20.3 86 1.6 NNE 7 11 4 6 1015.8 1015.8 0.0
30/07:00pm 23.0 25.6 20.5 86 1.6 NE 7 11 4 6 1015.2 1015.2 0.0
30/06:30pm 23.0 25.4 20.1 84 1.9 NE 7 11 4 6 1014.8 1014.8 0.0
30/06:00pm 23.3 25.4 20.1 82 2.1 ENE 9 13 5 7 1014.6 1014.6 0.0
30/05:30pm 23.5 24.7 19.8 80 2.4 ENE 13 19 7 10 1014.3 1014.3 0.0
30/05:00pm 23.9 25.0 19.6 77 2.8 NE 13 20 7 11 1014.2 1014.2 0.0
30/04:30pm 24.1 24.9 19.8 77 2.8 ENE 15 20 8 11 1013.9 1013.9 0.0
30/04:00pm 24.1 24.7 19.4 75 3.0 ENE 15 22 8 12 1014.0 1014.0 0.0
30/03:30pm 24.7 25.1 18.9 70 3.7 NE 15 22 8 12 1013.7 1013.7 0.0
30/03:00pm 24.9 24.9 19.0 69 3.8 ENE 17 24 9 13 1013.7 1013.7 0.0
30/02:30pm 25.5 26.0 19.2 68 4.0 NE 15 22 8 12 1014.0 1014.0 0.0
30/02:00pm 25.6 25.8 18.5 65 4.5 ENE 15 20 8 11 1014.1 1014.1 0.0
30/01:30pm 26.5 26.9 18.9 63 4.9 NE 15 26 8 14 1014.6 1014.6 0.0
30/01:00pm 26.3 27.2 19.2 65 4.6 E 13 20 7 11 1014.9 1014.9 0.0
30/12:30pm 26.8 27.8 17.8 57 5.7 NE 9 15 5 8 1015.4 1015.4 0.0
30/12:00pm 26.3 27.6 19.4 66 4.4 E 11 19 6 10 1015.9 1015.9 0.0
30/11:30am 25.7 26.8 18.9 66 4.3 E 11 22 6 12 1016.3 1016.3 0.0
30/11:00am 25.6 26.1 18.3 64 4.6 E 13 20 7 11 1016.7 1016.7 0.0
30/10:30am 25.4 25.8 18.1 64 4.6 ESE 13 20 7 11 1017.0 1017.0 0.0
30/10:00am 24.8 25.1 17.8 65 4.4 ESE 13 20 7 11 1017.2 1017.2 0.0
30/09:30am 24.5 24.9 18.2 68 4.0 ESE 13 19 7 10 1017.6 1017.6 0.0
30/09:00am 24.2 24.8 18.6 71 3.5 SE 13 19 7 10 1017.8 1017.8 0.0
30/08:30am 24.3 25.7 18.7 71 3.6 SSE 9 13 5 7 1017.7 1017.7 0.0
30/08:00am 24.4 25.1 18.8 71 3.6 S 13 17 7 9 1017.8 1017.8 0.0
30/07:30am 24.1 25.3 18.3 70 3.7 S 9 17 5 9 1017.7 1017.7 0.0
30/07:00am 22.6 23.1 17.5 73 3.1 S 11 17 6 9 1017.5 1017.5 0.0
30/06:30am 21.9 22.7 17.3 75 2.8 S 9 15 5 8 1017.2 1017.2 0.0
30/06:00am 21.5 22.1 16.9 75 2.8 S 9 11 5 6 1017.0 1017.0 0.0
30/05:30am 21.4 22.1 17.0 76 2.7 S 9 11 5 6 1016.4 1016.4 0.0
30/05:00am 21.3 21.6 16.9 76 2.7 S 11 15 6 8 1016.0 1016.0 0.0
30/04:30am 21.4 21.7 17.0 76 2.7 S 11 15 6 8 1015.8 1015.8 0.0
30/04:00am 21.5 22.2 17.1 76 2.7 S 9 13 5 7 1015.5 1015.5 0.0
30/03:30am 21.6 22.7 17.0 75 2.8 S 7 13 4 7 1015.4 1015.4 0.0
30/03:00am 21.6 22.7 17.2 76 2.7 SSW 7 11 4 6 1015.4 1015.4 0.0
30/02:30am 21.6 22.4 17.2 76 2.7 S 9 13 5 7 1015.4 1015.4 0.0
30/02:00am 21.6 22.8 17.4 77 2.6 SSW 7 11 4 6 1015.5 1015.5 0.0
30/01:30am 21.8 23.1 17.6 77 2.6 S 7 13 4 7 1015.6 1015.6 0.0
30/01:00am 21.9 22.8 17.5 76 2.7 S 9 13 5 7 1015.7 1015.7 0.0
30/12:30am 22.1 23.1 17.7 76 2.7 S 9 13 5 7 1015.8 1015.8 0.0
30/12:00am 22.4 23.7 18.4 78 2.5 S 9 13 5 7 1016.3 1016.3 0.0
 
Date/Time
EST
Tmp

°C
App
Tmp
°C
Dew
Point
°C
Rel
Hum
%
Delta-T

°C
Wind Press
QNH
hPa
Press
MSL
hPa
Rain
since
9 am
mm
Dir
 
Spd
km/h
Gust
km/h
Spd
kts
Gust
kts
29/11:30pm 22.7 24.1 18.7 78 2.5 S 9 15 5 8 1016.5 1016.5 0.0
29/11:00pm 22.8 24.6 19.6 82 2.0 SSE 9 13 5 7 1016.8 1016.8 0.0
29/10:30pm 23.0 24.2 20.0 83 1.9 SE 13 20 7 11 1016.8 1016.8 0.0
29/10:00pm 23.0 24.8 20.3 85 1.7 SE 11 20 6 11 1016.9 1016.9 0.0
29/09:30pm 23.1 25.0 20.6 86 1.6 SE 11 15 6 8 1016.7 1016.7 0.0
29/09:00pm 23.1 25.3 20.4 85 1.7 SE 9 17 5 9 1016.8 1016.8 0.0
29/08:30pm 22.9 25.3 20.1 84 1.8 SSE 7 13 4 7 1016.6 1016.6 0.0
29/08:00pm 23.1 24.8 20.1 83 1.9 SE 11 19 6 10 1016.3 1016.3 0.0
29/07:30pm 23.3 24.6 20.1 82 2.1 ESE 13 20 7 11 1016.1 1016.1 0.0
29/07:00pm 23.2 24.9 20.2 83 1.9 SE 11 15 6 8 1015.8 1015.8 0.0
29/06:30pm 23.2 24.7 19.8 81 2.2 SSE 11 20 6 11 1015.7 1015.7 0.0
29/06:00pm 23.4 24.3 20.0 81 2.2 SE 15 26 8 14 1015.3 1015.3 0.0
29/05:30pm 23.6 23.9 19.5 78 2.6 SE 17 28 9 15 1014.8 1014.8 0.0
29/05:00pm 23.7 24.4 19.6 78 2.6 ESE 15 26 8 14 1014.5 1014.5 0.0
29/04:30pm 23.9 24.0 20.0 79 2.5 ESE 19 30 10 16 1014.2 1014.2 0.0
29/04:00pm 24.1 24.1 20.2 79 2.5 SE 20 30 11 16 1013.6 1013.6 0.0
29/03:30pm 24.4 24.4 20.1 77 2.8 ESE 20 32 11 17 1013.6 1013.6 0.0
29/03:00pm 24.8 24.4 20.1 75 3.0 ESE 22 33 12 18 1013.5 1013.5 0.0
29/02:30pm 24.8 23.7 19.4 72 3.5 ESE 24 33 13 18 1013.6 1013.6 0.0
29/02:00pm 24.9 24.6 19.5 72 3.5 ESE 20 32 11 17 1013.6 1013.6 0.0
29/01:30pm 24.8 24.1 19.4 72 3.5 ESE 22 33 12 18 1013.7 1013.7 0.0
29/01:00pm 25.2 23.6 19.3 70 3.8 ESE 26 37 14 20 1013.8 1013.8 0.0
29/12:30pm 25.6 24.9 19.5 69 3.9 ESE 22 37 12 20 1013.9 1013.9 0.0
29/12:00pm 25.6 25.3 19.5 69 3.9 ESE 20 30 11 16 1014.0 1014.0 0.0
29/11:30am 25.1 24.2 19.0 69 3.9 ESE 22 32 12 17 1014.3 1014.3 0.0
29/11:00am 26.2 26.1 18.8 63 4.7 SE 17 28 9 15 1014.5 1014.5 0.0
29/10:30am 26.6 27.4 19.0 63 4.9 SSE 13 20 7 11 1014.6 1014.6 0.0
29/10:00am 25.6 25.7 18.3 64 4.6 SE 15 24 8 13 1014.7 1014.7 0.0
29/09:30am 24.8 24.8 19.0 70 3.7 SE 17 24 9 13 1014.8 1014.8 0.0
29/09:00am 24.7 25.6 19.3 72 3.5 SE 13 22 7 12 1014.6 1014.6 1.2
29/08:30am 24.3 25.6 19.4 74 3.1 ESE 11 19 6 10 1014.5 1014.5 1.2
29/08:00am 23.5 25.4 19.8 80 2.4 SE 9 13 5 7 1014.3 1014.3 1.2
29/07:30am 22.9 24.7 20.4 86 1.6 S 11 15 6 8 1014.1 1014.1 1.2

Latest Capital City Observations: Canberra | Sydney | Melbourne | Brisbane | Adelaide | Perth | Hobart | Darwin

Other Formats:

Comma delimited format used in spreadsheet applications
http://www.bom.gov.au/fwo/IDQ60901/IDQ60901.94570.axf

JavaScript Object Notation format (JSON) in row-major order
http://www.bom.gov.au/fwo/IDQ60901/IDQ60901.94570.json